Terminal Aerodrome Forecast
Issued by NWS Charleston, WV

Current Version | Previous Version | Graphics & Text | Print | Product List | Glossary On
Versions: 1 2 3 4 5 6 7 8 9 10 11 12 13 14 15 16 17 18 19 20 21 22 23 24 25 26 27 28
844
FTUS41 KRLX 191739
TAFBKW
TAF
KBKW 191739Z 1918/2018 20005KT P6SM BKN200
     FM200800 15007KT 5SM -SHRA OVC035
     FM201000 16007KT 3SM -RA BR OVC025
     FM201200 16008KT 3SM -RA BR OVC010
     FM201500 22007KT P6SM BKN015=

USA.gov is the U.S. government's official web portal to all federal, state and local government web resources and services.